Sawbridgeworth, United Kingdom
Current Conditions -  °F | °C
As of 9:20 PM on Tuesday 21 Oct 2014 (Local Time) from EGSS Reporting Station
Clear Clear  
Wind Chill: 37°   Ceiling: Unl
Heat Index: 45°   Visibility: 6mi
Dew Point: 37°   Wind: 20mph
Humidity: 76%   Direction: 300°WNW
Pressure: 29.97"   Gusts: NA
Location:  51.8°N, 0.14°E
Report Text: EGSS 212020Z 30017KT CAVOK 07/03 Q1015
Loading
Personal Weather Stations






























Interactive Weather Map
Tropical Storm Tracking
New forecast layout! Learn more

10-Day Weather Forecast

Advertisements
Track Severe Weather on mobile